createdAt,value
2022-08-23T00:02:23.179Z,26.43
2022-08-23T00:05:03.433Z,26.41
2022-08-23T00:07:42.897Z,26.43
2022-08-23T00:10:14.212Z,26.43
2022-08-23T00:12:44.597Z,26.42
2022-08-23T00:15:17.982Z,26.41
2022-08-23T00:17:47.792Z,26.42
2022-08-23T00:20:20.559Z,26.41
2022-08-23T00:22:48.621Z,26.32
2022-08-23T00:25:18.542Z,26.23
2022-08-23T00:27:47.038Z,26.29
2022-08-23T00:30:16.251Z,26.30
2022-08-23T00:32:46.025Z,26.27
2022-08-23T00:35:23.732Z,26.27
2022-08-23T00:38:30.402Z,26.24
2022-08-23T00:40:51.476Z,26.21
2022-08-23T00:43:48.946Z,26.22
2022-08-23T00:47:09.996Z,26.15
2022-08-23T00:49:41.116Z,26.10
2022-08-23T00:52:33.937Z,26.11
2022-08-23T00:55:03.759Z,26.02
2022-08-23T00:57:32.981Z,25.87
2022-08-23T01:00:01.560Z,25.77
2022-08-23T01:02:29.828Z,25.64
2022-08-23T01:05:01.266Z,25.61
2022-08-23T01:08:01.678Z,25.32
2022-08-23T01:10:50.371Z,25.50
2022-08-23T01:13:49.682Z,25.48
2022-08-23T01:16:54.404Z,25.44
2022-08-23T01:19:47.191Z,25.40
2022-08-23T01:22:46.732Z,25.39
2022-08-23T01:25:21.815Z,25.26
2022-08-23T01:27:51.201Z,25.12
2022-08-23T01:30:25.854Z,25.07
2022-08-23T01:32:58.800Z,24.98
2022-08-23T01:35:47.661Z,24.91
2022-08-23T01:38:16.293Z,24.83
2022-08-23T01:40:46.386Z,24.85
2022-08-23T01:43:15.688Z,24.86
2022-08-23T01:45:44.075Z,24.86
2022-08-23T01:48:15.418Z,24.89
2022-08-23T01:50:43.354Z,24.92
2022-08-23T01:53:12.104Z,24.92
2022-08-23T01:55:44.266Z,24.96
2022-08-23T01:58:13.207Z,25.03
2022-08-23T02:00:44.530Z,25.06
2022-08-23T02:03:14.662Z,25.07
2022-08-23T02:05:43.316Z,25.11
2022-08-23T02:08:31.444Z,25.08
2022-08-23T02:11:08.750Z,25.09
2022-08-23T02:13:37.117Z,25.07
2022-08-23T02:16:05.811Z,25.05
2022-08-23T02:18:34.944Z,25.01
2022-08-23T02:21:03.690Z,25.00
2022-08-23T02:23:32.193Z,24.98
2022-08-23T02:26:00.257Z,24.95
2022-08-23T02:28:29.575Z,24.92
2022-08-23T02:31:00.339Z,24.84
2022-08-23T02:33:39.459Z,24.81
2022-08-23T02:36:08.513Z,24.80
2022-08-23T02:38:38.483Z,24.83
2022-08-23T02:41:07.661Z,24.81
2022-08-23T02:43:40.902Z,24.80
2022-08-23T02:46:11.787Z,24.81
2022-08-23T02:48:41.338Z,24.68
2022-08-23T02:51:10.803Z,24.77
2022-08-23T02:53:39.276Z,24.74
2022-08-23T02:56:21.110Z,24.73
2022-08-23T02:58:54.541Z,24.72
2022-08-23T03:01:33.087Z,24.74
2022-08-23T03:04:12.522Z,24.67
2022-08-23T03:06:42.025Z,24.64
2022-08-23T03:09:11.838Z,24.68
2022-08-23T03:11:47.588Z,24.69
2022-08-23T03:14:16.887Z,24.68
2022-08-23T03:16:46.490Z,24.65
2022-08-23T03:19:15.694Z,24.63
2022-08-23T03:21:44.296Z,24.61
2022-08-23T03:24:13.998Z,24.59
2022-08-23T03:26:45.733Z,24.61
2022-08-23T03:29:15.772Z,24.54
2022-08-23T03:32:01.743Z,24.45
2022-08-23T03:34:33.756Z,24.39
2022-08-23T03:37:01.964Z,24.31
2022-08-23T03:39:31.495Z,24.22
2022-08-23T03:42:01.454Z,24.12
2022-08-23T03:44:33.111Z,24.03
2022-08-23T03:47:02.327Z,23.97
2022-08-23T03:49:33.277Z,23.88
2022-08-23T03:52:02.240Z,23.81
2022-08-23T03:54:34.644Z,23.82
2022-08-23T03:57:09.832Z,23.74
2022-08-23T03:59:41.570Z,23.67
2022-08-23T04:02:13.903Z,23.59
2022-08-23T04:04:42.673Z,23.57
2022-08-23T04:07:39.565Z,23.47
2022-08-23T04:10:13.842Z,23.34
2022-08-23T04:12:43.572Z,23.23
2022-08-23T04:15:16.799Z,23.10
2022-08-23T04:17:44.968Z,23.05
2022-08-23T04:20:15.050Z,23.01
2022-08-23T04:23:04.945Z,22.95
2022-08-23T04:25:40.627Z,22.90
2022-08-23T04:28:09.593Z,22.86
2022-08-23T04:30:38.029Z,22.85
2022-08-23T04:33:11.265Z,22.77
2022-08-23T04:35:42.308Z,22.76
2022-08-23T04:38:18.232Z,22.79
2022-08-23T04:41:13.126Z,22.79
2022-08-23T04:43:44.013Z,22.80
2022-08-23T04:46:16.422Z,22.78
2022-08-23T04:48:47.884Z,22.77
2022-08-23T04:51:20.362Z,22.75
2022-08-23T04:53:49.684Z,22.75
2022-08-23T04:56:33.343Z,22.67
2022-08-23T04:59:02.117Z,22.62
2022-08-23T05:01:31.275Z,22.57
2022-08-23T05:04:01.938Z,22.58
2022-08-23T05:06:31.569Z,22.56
2022-08-23T05:09:00.264Z,22.57
2022-08-23T05:11:29.704Z,22.59
2022-08-23T05:13:57.749Z,22.59
2022-08-23T05:16:26.593Z,22.59
2022-08-23T05:19:10.399Z,22.59
2022-08-23T05:21:46.290Z,22.64
2022-08-23T05:24:16.831Z,22.49
2022-08-23T05:26:47.943Z,22.66
2022-08-23T05:29:16.825Z,22.85
2022-08-23T05:31:49.910Z,22.96
2022-08-23T05:34:22.762Z,22.84
2022-08-23T05:37:03.749Z,23.07
2022-08-23T05:39:38.318Z,23.22
2022-08-23T05:42:12.325Z,23.35
2022-08-23T05:44:40.946Z,23.39
2022-08-23T05:47:15.594Z,23.51
2022-08-23T05:49:54.747Z,23.55
2022-08-23T05:52:24.829Z,23.63
2022-08-23T05:54:53.959Z,23.60
2022-08-23T05:57:41.567Z,23.75
2022-08-23T06:00:14.815Z,23.80
2022-08-23T06:02:51.484Z,23.84
2022-08-23T06:05:21.829Z,23.91
2022-08-23T06:07:52.044Z,23.97
2022-08-23T06:10:22.761Z,24.01
2022-08-23T06:13:04.313Z,24.06
2022-08-23T06:15:32.695Z,24.15
2022-08-23T06:18:02.510Z,24.23
2022-08-23T06:20:31.287Z,24.28
2022-08-23T06:23:22.469Z,24.38
2022-08-23T06:26:27.081Z,24.49
2022-08-23T06:28:59.679Z,24.57
2022-08-23T06:31:48.100Z,24.65
2022-08-23T06:34:36.521Z,24.75
2022-08-23T06:37:14.993Z,24.86
2022-08-23T06:40:09.204Z,24.91
2022-08-23T06:42:59.984Z,24.81
2022-08-23T06:45:39.473Z,25.05
2022-08-23T06:48:10.025Z,25.20
2022-08-23T06:50:38.672Z,25.32
2022-08-23T06:53:31.862Z,25.45
2022-08-23T06:56:27.235Z,25.58
2022-08-23T06:59:06.767Z,25.68
2022-08-23T07:02:08.225Z,25.76
2022-08-23T07:04:55.875Z,25.86
2022-08-23T07:07:41.157Z,26.02
2022-08-23T07:10:15.645Z,26.11
2022-08-23T07:12:46.339Z,26.22
2022-08-23T07:15:15.305Z,26.33
2022-08-23T07:17:47.712Z,26.45
2022-08-23T07:20:16.735Z,26.57
2022-08-23T07:22:45.841Z,26.67
2022-08-23T07:25:15.152Z,26.78
2022-08-23T07:27:48.435Z,26.86
2022-08-23T07:30:20.582Z,26.96
2022-08-23T07:32:50.021Z,27.05
2022-08-23T07:35:23.508Z,27.12
2022-08-23T07:37:57.275Z,27.19
2022-08-23T07:40:30.286Z,27.27
2022-08-23T07:43:06.946Z,27.37
2022-08-23T07:45:41.229Z,27.48
2022-08-23T07:48:14.383Z,27.53
2022-08-23T07:51:10.325Z,27.61
2022-08-23T07:53:43.046Z,27.71
2022-08-23T07:56:18.288Z,27.80
2022-08-23T07:59:15.644Z,27.82
2022-08-23T08:02:10.130Z,27.95
2022-08-23T08:04:40.288Z,28.07
2022-08-23T08:07:19.363Z,28.16
2022-08-23T08:09:55.357Z,28.21
2022-08-23T08:12:25.321Z,28.30
2022-08-23T08:14:59.764Z,28.35
2022-08-23T08:17:37.319Z,28.41
2022-08-23T08:20:22.077Z,28.48
2022-08-23T08:22:58.706Z,28.56
2022-08-23T08:25:37.773Z,28.63
2022-08-23T08:28:13.967Z,28.70
2022-08-23T08:30:44.051Z,28.77
2022-08-23T08:33:13.151Z,28.85
2022-08-23T08:35:42.102Z,28.90
2022-08-23T08:38:12.039Z,28.98
2022-08-23T08:40:42.115Z,29.02
2022-08-23T08:43:17.824Z,29.11
2022-08-23T08:46:24.504Z,29.16
2022-08-23T08:49:01.289Z,29.19
2022-08-23T08:51:57.591Z,29.27
2022-08-23T08:54:30.068Z,29.29
2022-08-23T08:57:01.330Z,29.42
2022-08-23T09:00:20.172Z,29.49
2022-08-23T09:02:50.455Z,29.57
2022-08-23T09:05:32.046Z,29.70
2022-08-23T09:08:43.754Z,29.75
2022-08-23T09:11:35.876Z,29.82
2022-08-23T09:14:22.536Z,29.86
2022-08-23T09:17:05.671Z,29.95
2022-08-23T09:19:38.554Z,29.98
2022-08-23T09:22:19.314Z,30.07
2022-08-23T09:24:49.039Z,30.08
2022-08-23T09:27:25.709Z,30.16
2022-08-23T09:30:01.473Z,30.25
2022-08-23T09:32:38.805Z,30.27
2022-08-23T09:35:18.026Z,30.33
2022-08-23T09:38:12.417Z,30.39
2022-08-23T09:40:48.578Z,30.43
2022-08-23T09:43:23.372Z,30.47
2022-08-23T09:45:52.604Z,30.54
2022-08-23T09:48:46.915Z,30.65
2022-08-23T09:51:42.873Z,30.68
2022-08-23T09:54:36.140Z,30.74
2022-08-23T09:57:13.725Z,30.74
2022-08-23T09:59:46.480Z,30.80
2022-08-23T10:02:27.551Z,30.86
2022-08-23T10:05:40.100Z,30.91
2022-08-23T10:08:28.932Z,30.99
2022-08-23T10:11:41.077Z,31.07
2022-08-23T10:14:19.857Z,31.11
2022-08-23T10:17:01.863Z,31.18
2022-08-23T10:19:59.526Z,31.23
2022-08-23T10:22:33.619Z,31.26
2022-08-23T10:25:45.801Z,31.38
2022-08-23T10:29:35.199Z,31.43
2022-08-23T10:32:18.701Z,31.48
2022-08-23T10:35:19.637Z,31.55
2022-08-23T10:38:03.279Z,31.63
2022-08-23T10:40:53.977Z,31.67
2022-08-23T10:44:01.431Z,31.69
2022-08-23T10:46:45.405Z,31.74
2022-08-23T10:49:16.337Z,31.77
2022-08-23T10:51:51.787Z,31.83
2022-08-23T10:54:36.142Z,31.92
2022-08-23T10:57:09.718Z,31.91
2022-08-23T10:59:38.921Z,32.00
2022-08-23T11:02:34.806Z,32.06
2022-08-23T11:05:32.977Z,32.06
2022-08-23T11:08:12.255Z,32.12
2022-08-23T11:10:55.894Z,32.12
2022-08-23T11:13:35.494Z,32.17
2022-08-23T11:16:26.138Z,32.21
2022-08-23T11:18:54.670Z,32.16
2022-08-23T11:21:41.865Z,32.28
2022-08-23T11:24:16.542Z,32.33
2022-08-23T11:26:47.001Z,32.35
2022-08-23T11:29:24.084Z,32.44
2022-08-23T11:32:29.972Z,32.47
2022-08-23T11:35:44.309Z,32.49
2022-08-23T11:38:38.446Z,32.51
2022-08-23T11:41:20.106Z,32.63
2022-08-23T11:43:57.508Z,32.67
2022-08-23T11:46:27.718Z,32.70
2022-08-23T11:49:31.228Z,32.76
2022-08-23T11:52:47.599Z,32.83
2022-08-23T11:56:09.313Z,32.83
2022-08-23T11:59:02.545Z,32.84
2022-08-23T12:01:39.456Z,32.81
2022-08-23T12:04:15.073Z,32.88
2022-08-23T12:07:02.149Z,32.88
2022-08-23T12:09:30.129Z,32.88
2022-08-23T12:12:02.503Z,32.91
2022-08-23T12:14:45.671Z,32.93
2022-08-23T12:17:16.898Z,32.93
2022-08-23T12:19:54.585Z,32.97
2022-08-23T12:23:12.374Z,32.97
2022-08-23T12:25:41.289Z,32.95
2022-08-23T12:28:35.040Z,33.05
2022-08-23T12:31:24.647Z,33.08
2022-08-23T12:34:49.165Z,33.10
2022-08-23T12:37:28.186Z,33.17
2022-08-23T12:40:04.486Z,33.21
2022-08-23T12:42:38.833Z,33.23
2022-08-23T12:45:23.693Z,33.28
2022-08-23T12:48:02.783Z,33.29
2022-08-23T12:50:38.339Z,33.23
2022-08-23T12:53:44.735Z,33.31
2022-08-23T12:56:31.881Z,33.32
2022-08-23T12:59:07.771Z,33.28
2022-08-23T13:01:39.642Z,33.39
2022-08-23T13:04:13.964Z,33.44
2022-08-23T13:06:59.776Z,33.49
2022-08-23T13:09:34.490Z,33.49
2022-08-23T13:12:05.014Z,33.52
2022-08-23T13:14:42.558Z,33.56
2022-08-23T13:17:25.675Z,33.62
2022-08-23T13:20:24.048Z,33.64
2022-08-23T13:23:27.567Z,33.68
2022-08-23T13:25:56.085Z,33.69
2022-08-23T13:28:31.164Z,33.78
2022-08-23T13:31:10.789Z,33.84
2022-08-23T13:33:41.207Z,33.76
2022-08-23T13:36:17.797Z,33.88
2022-08-23T13:38:46.610Z,33.87
2022-08-23T13:41:38.414Z,33.97
2022-08-23T13:44:09.984Z,33.92
2022-08-23T13:46:48.046Z,34.01
2022-08-23T13:49:22.949Z,33.99
2022-08-23T13:54:53.127Z,34.03
2022-08-23T13:57:22.711Z,34.06
2022-08-23T13:59:59.059Z,34.08
2022-08-23T14:02:28.794Z,34.02
2022-08-23T14:04:56.874Z,34.13
2022-08-23T14:07:26.547Z,34.14
2022-08-23T14:09:57.184Z,34.16
2022-08-23T14:12:32.258Z,34.09
2022-08-23T14:15:05.861Z,34.14
2022-08-23T14:17:43.368Z,34.24
2022-08-23T14:23:11.503Z,34.20
2022-08-23T14:25:40.513Z,34.20
2022-08-23T14:28:08.660Z,34.21
2022-08-23T14:30:37.706Z,34.19
2022-08-23T14:33:07.821Z,34.22
2022-08-23T14:35:38.035Z,34.23
2022-08-23T14:38:06.824Z,34.26
2022-08-23T14:40:36.917Z,34.30
2022-08-23T14:43:06.013Z,34.30
2022-08-23T14:45:35.096Z,34.32
2022-08-23T14:48:03.616Z,34.32
2022-08-23T14:50:32.183Z,34.37
2022-08-23T14:53:05.973Z,34.37
2022-08-23T14:55:34.307Z,34.38
2022-08-23T14:58:10.749Z,34.41
2022-08-23T15:00:45.369Z,34.41
2022-08-23T15:03:19.626Z,34.44
2022-08-23T15:05:48.541Z,34.46
2022-08-23T15:08:17.636Z,34.43
2022-08-23T15:10:52.598Z,34.49
2022-08-23T15:13:41.573Z,34.46
2022-08-23T15:16:26.691Z,34.53
2022-08-23T15:18:56.391Z,34.33
2022-08-23T15:21:28.192Z,34.49
2022-08-23T15:23:56.273Z,34.54
2022-08-23T15:26:28.993Z,34.58
2022-08-23T15:29:00.860Z,34.56
2022-08-23T15:31:30.008Z,34.59
2022-08-23T15:33:59.304Z,34.56
2022-08-23T15:36:28.122Z,34.61
2022-08-23T15:38:57.900Z,34.61
2022-08-23T15:41:25.972Z,34.58
2022-08-23T15:43:54.698Z,34.60
2022-08-23T15:46:25.143Z,34.64
2022-08-23T15:49:10.757Z,34.66
2022-08-23T15:51:41.950Z,34.64
2022-08-23T15:54:11.084Z,34.64
2022-08-23T15:56:47.861Z,34.62
2022-08-23T15:59:20.424Z,34.67
2022-08-23T16:01:49.844Z,34.64
2022-08-23T16:04:18.720Z,34.65
2022-08-23T16:06:48.426Z,34.65
2022-08-23T16:09:23.958Z,34.62
2022-08-23T16:11:53.156Z,34.61
2022-08-23T16:14:23.447Z,34.63
2022-08-23T16:16:55.328Z,34.63
2022-08-23T16:19:25.281Z,34.62
2022-08-23T16:21:55.616Z,34.59
2022-08-23T16:24:24.994Z,34.63
2022-08-23T16:26:53.944Z,34.61
2022-08-23T16:29:23.225Z,34.62
2022-08-23T16:31:52.226Z,34.61
2022-08-23T16:34:21.643Z,34.56
2022-08-23T16:37:01.713Z,34.59
2022-08-23T16:39:32.776Z,34.52
2022-08-23T16:42:06.127Z,34.54
2022-08-23T16:44:35.827Z,34.51
2022-08-23T16:47:07.836Z,34.49
2022-08-23T16:49:36.322Z,34.43
2022-08-23T16:52:04.606Z,34.44
2022-08-23T16:54:32.575Z,34.39
2022-08-23T16:57:02.123Z,34.37
2022-08-23T16:59:31.421Z,34.35
2022-08-23T17:02:05.868Z,34.35
2022-08-23T17:04:39.196Z,34.27
2022-08-23T17:07:07.613Z,34.26
2022-08-23T17:09:37.580Z,34.23
2022-08-23T17:12:07.040Z,34.16
2022-08-23T17:14:35.248Z,34.08
2022-08-23T17:17:06.416Z,34.06
2022-08-23T17:19:34.647Z,34.02
2022-08-23T17:22:03.293Z,34.00
2022-08-23T17:24:32.232Z,33.93
2022-08-23T17:27:02.760Z,33.94
2022-08-23T17:29:34.538Z,33.86
2022-08-23T17:32:07.662Z,33.75
2022-08-23T17:34:36.214Z,33.79
2022-08-23T17:37:16.998Z,33.76
2022-08-23T17:39:45.758Z,33.62
2022-08-23T17:42:13.732Z,33.67
2022-08-23T17:44:42.239Z,33.63
2022-08-23T17:47:16.857Z,33.59
2022-08-23T17:49:46.712Z,33.56
2022-08-23T17:52:16.723Z,33.48
2022-08-23T17:54:44.884Z,33.44
2022-08-23T17:57:13.279Z,33.41
2022-08-23T17:59:43.250Z,33.39
2022-08-23T18:02:12.394Z,33.33
2022-08-23T18:04:42.190Z,33.30
2022-08-23T18:07:11.187Z,33.24
2022-08-23T18:09:48.304Z,33.16
2022-08-23T18:12:17.181Z,33.02
2022-08-23T18:14:46.634Z,32.87
2022-08-23T18:17:18.349Z,32.67
2022-08-23T18:19:47.636Z,32.60
2022-08-23T18:22:15.414Z,32.41
2022-08-23T18:25:05.900Z,32.29
2022-08-23T18:27:52.956Z,32.18
2022-08-23T18:30:57.682Z,32.04
2022-08-23T18:33:32.294Z,31.89
2022-08-23T18:36:19.769Z,31.77
2022-08-23T18:38:51.354Z,31.67
2022-08-23T18:41:19.843Z,31.60
2022-08-23T18:43:48.250Z,31.47
2022-08-23T18:46:16.621Z,31.39
2022-08-23T18:48:47.922Z,31.28
2022-08-23T18:51:22.419Z,31.17
2022-08-23T18:53:50.566Z,31.08
2022-08-23T18:56:18.504Z,30.97
2022-08-23T18:58:48.106Z,30.87
2022-08-23T19:01:36.489Z,30.79
2022-08-23T19:04:07.591Z,30.65
2022-08-23T19:06:37.290Z,30.51
2022-08-23T19:09:07.444Z,30.44
2022-08-23T19:11:37.408Z,30.30
2022-08-23T19:14:07.399Z,30.27
2022-08-23T19:16:37.019Z,30.16
2022-08-23T19:19:05.890Z,30.10
2022-08-23T19:21:34.283Z,29.98
2022-08-23T19:24:05.432Z,29.93
2022-08-23T19:26:36.196Z,29.80
2022-08-23T19:29:08.527Z,29.72
2022-08-23T19:31:42.795Z,29.62
2022-08-23T19:34:11.430Z,29.51
2022-08-23T19:36:47.361Z,29.40
2022-08-23T19:39:17.930Z,29.36
2022-08-23T19:41:46.952Z,29.30
2022-08-23T19:44:17.882Z,29.23
2022-08-23T19:46:46.572Z,29.16
2022-08-23T19:49:14.873Z,29.09
2022-08-23T19:51:45.642Z,29.04
2022-08-23T19:54:15.062Z,28.97
2022-08-23T19:56:57.452Z,28.89
2022-08-23T19:59:33.131Z,28.79
2022-08-23T20:02:02.866Z,28.70
2022-08-23T20:04:33.429Z,28.63
2022-08-23T20:07:05.099Z,28.52
2022-08-23T20:09:35.055Z,28.42
2022-08-23T20:12:03.510Z,28.39
2022-08-23T20:14:33.237Z,28.31
2022-08-23T20:17:04.682Z,28.14
2022-08-23T20:19:32.735Z,28.16
2022-08-23T20:22:21.752Z,28.10
2022-08-23T20:24:52.675Z,27.98
2022-08-23T20:27:28.358Z,27.97
2022-08-23T20:30:20.092Z,27.90
2022-08-23T20:32:49.195Z,27.85
2022-08-23T20:35:17.675Z,27.82
2022-08-23T20:37:46.403Z,27.77
2022-08-23T20:40:17.510Z,27.84
2022-08-23T20:42:45.495Z,27.82
2022-08-23T20:45:14.655Z,27.83
2022-08-23T20:47:43.879Z,27.80
2022-08-23T20:50:13.581Z,27.71
2022-08-23T20:52:41.672Z,27.59
2022-08-23T20:55:11.069Z,27.40
2022-08-23T20:57:39.769Z,27.37
2022-08-23T21:00:10.443Z,27.35
2022-08-23T21:02:38.272Z,27.31
2022-08-23T21:05:06.716Z,27.27
2022-08-23T21:07:35.265Z,27.20
2022-08-23T21:10:05.658Z,27.15
2022-08-23T21:12:33.793Z,27.05
2022-08-23T21:15:01.711Z,27.01
2022-08-23T21:17:29.615Z,26.96
2022-08-23T21:19:57.687Z,26.91
2022-08-23T21:22:31.845Z,26.92
2022-08-23T21:25:00.260Z,26.87
2022-08-23T21:27:28.948Z,26.85
2022-08-23T21:29:56.983Z,26.82
2022-08-23T21:32:25.201Z,26.78
2022-08-23T21:34:54.380Z,26.74
2022-08-23T21:37:22.467Z,26.68
2022-08-23T21:39:51.119Z,26.56
2022-08-23T21:42:23.615Z,26.59
2022-08-23T21:44:53.670Z,26.57
2022-08-23T21:47:21.608Z,26.48
2022-08-23T21:49:49.393Z,26.38
2022-08-23T21:52:18.371Z,26.43
2022-08-23T21:54:47.246Z,26.38
2022-08-23T21:57:16.734Z,26.29
2022-08-23T21:59:44.641Z,26.27
2022-08-23T22:02:13.977Z,26.20
2022-08-23T22:04:41.843Z,26.15
2022-08-23T22:07:10.613Z,26.13
2022-08-23T22:09:39.532Z,26.02
2022-08-23T22:12:09.728Z,26.02
2022-08-23T22:14:37.954Z,25.93
2022-08-23T22:17:06.500Z,25.89
2022-08-23T22:19:34.515Z,25.88
2022-08-23T22:22:05.544Z,25.87
2022-08-23T22:24:33.479Z,25.75
2022-08-23T22:27:02.379Z,25.81
2022-08-23T22:29:32.575Z,25.69
2022-08-23T22:32:02.085Z,25.72
2022-08-23T22:34:30.929Z,25.65
2022-08-23T22:37:00.044Z,25.60
2022-08-23T22:39:29.388Z,25.62
2022-08-23T22:41:58.677Z,25.59
2022-08-23T22:44:26.557Z,25.60
2022-08-23T22:46:54.929Z,25.51
2022-08-23T22:49:24.315Z,25.53
2022-08-23T22:51:55.269Z,25.22
2022-08-23T22:54:24.842Z,25.31
2022-08-23T22:56:55.424Z,25.37
2022-08-23T22:59:27.614Z,25.37
2022-08-23T23:01:58.708Z,25.07
2022-08-23T23:04:28.352Z,25.19
2022-08-23T23:06:57.436Z,25.30
2022-08-23T23:09:26.808Z,25.30
2022-08-23T23:11:56.549Z,25.34
2022-08-23T23:14:24.709Z,25.32
2022-08-23T23:16:53.311Z,25.37
2022-08-23T23:19:41.142Z,25.33
2022-08-23T23:22:10.892Z,25.25
2022-08-23T23:24:40.037Z,25.28
2022-08-23T23:27:09.865Z,25.23
2022-08-23T23:29:38.403Z,25.21
2022-08-23T23:32:06.515Z,25.21
2022-08-23T23:34:34.985Z,25.20
2022-08-23T23:37:04.256Z,25.17
2022-08-23T23:39:32.411Z,25.09
2022-08-23T23:42:00.954Z,25.06
2022-08-23T23:44:31.550Z,25.01
2022-08-23T23:47:02.299Z,24.92
2022-08-23T23:49:33.023Z,24.88
2022-08-23T23:52:07.310Z,24.91
2022-08-23T23:54:38.595Z,24.92
2022-08-23T23:57:07.503Z,24.88
2022-08-23T23:59:35.634Z,24.90
